»·PEaware :: N4818D KPMD-KPMD

N4818D :: KPMD-KPMD

FLIGHT INFORMATION

Flight Status: Arrived
Operator: Privately registered:
United States
More flights under this callsign
Pilot: Ryan V. (26764)
Aircraft: CESSNA 172 SKYHAWK
(C172)
More flights by this aircraft type
Origin: KPMD Palmdale AF Plant 42
United States
Destination: KPMD Palmdale AF Plant 42
United States
More flights between these airports :: More routes between these airports
Route:
File this flight plan on PilotEdge
Remarks: Missed approaches
Altitude:
(Current/Filed)
6,000ft
Speed:
(Current/Filed)
110kts
Departed: 10-Apr-20 02:07 PM
Arrived: 10-Apr-20 02:42 PM
Distance/Time
Traveled:
0nm/0:35
Distance/Time
To Go:
Arrived

Flight Plot

Page will automatically refresh every two minutes.

Flight plan parsing failed; only flown route is shown


Map Options




Map Legend


Flown Route
Filed Route
Departure Airport
Arrival Airport
Navaid (VOR, NDB)
Fix

Horizontal Profiles

Position Reports

Time Latitude Longitude Heading Altitude Ground
Speed
10-Apr-20 13:10 34.641986 -118.082128 270 2487ft 0kts
10-Apr-20 13:12 34.641986 -118.082128 270 2487ft 0kts
10-Apr-20 13:13 34.641986 -118.082128 270 2487ft 0kts
10-Apr-20 13:14 34.641986 -118.082128 270 2487ft 0kts
10-Apr-20 13:14 34.641552 -118.082925 189 2488ft 17kts
10-Apr-20 13:15 34.636464 -118.082979 182 2496ft 4kts
10-Apr-20 13:16 34.634725 -118.088624 241 2504ft 0kts
10-Apr-20 13:17 34.628888 -118.089289 187 2516ft 36kts
10-Apr-20 13:18 34.619688 -118.089524 183 2536ft 3kts
10-Apr-20 13:19 34.619684 -118.089525 183 2536ft 0kts
10-Apr-20 13:20 34.619684 -118.089525 183 2536ft 0kts
10-Apr-20 13:21 34.619684 -118.089525 183 2536ft 0kts
10-Apr-20 13:22 34.619684 -118.089525 183 2536ft 0kts
10-Apr-20 13:23 34.619684 -118.089525 183 2536ft 0kts
10-Apr-20 13:24 34.619684 -118.089525 183 2536ft 0kts
10-Apr-20 13:25 34.619684 -118.089525 183 2536ft 0kts
10-Apr-20 13:26 34.619684 -118.089525 183 2536ft 0kts
10-Apr-20 13:27 34.619684 -118.089525 183 2536ft 0kts
10-Apr-20 13:28 34.619684 -118.089525 183 2536ft 0kts
10-Apr-20 13:29 34.619684 -118.089525 183 2536ft 0kts
10-Apr-20 13:30 34.619684 -118.089525 183 2536ft 0kts
10-Apr-20 13:31 34.619684 -118.089525 183 2536ft 0kts
10-Apr-20 13:32 34.619684 -118.089525 183 2536ft 0kts
10-Apr-20 13:33 34.619684 -118.089525 183 2536ft 0kts
10-Apr-20 13:34 34.619684 -118.089525 183 2536ft 0kts
10-Apr-20 13:35 34.619684 -118.089525 183 2536ft 0kts
10-Apr-20 13:36 34.619684 -118.089525 183 2536ft 0kts
10-Apr-20 13:37 34.619684 -118.089525 183 2536ft 0kts
10-Apr-20 13:38 34.619684 -118.089525 183 2536ft 0kts
10-Apr-20 13:39 34.619684 -118.089525 183 2536ft 0kts
10-Apr-20 13:40 34.619684 -118.089525 183 2536ft 0kts
10-Apr-20 13:41 34.619684 -118.089525 183 2536ft 0kts
10-Apr-20 13:42 34.619684 -118.089525 183 2536ft 0kts
10-Apr-20 13:43 34.619684 -118.089525 183 2536ft 0kts
10-Apr-20 13:44 34.619684 -118.089525 183 2536ft 0kts
10-Apr-20 13:45 34.619684 -118.089525 183 2536ft 0kts
10-Apr-20 13:46 34.619684 -118.089525 183 2536ft 0kts
10-Apr-20 13:47 34.619684 -118.089525 183 2536ft 0kts
10-Apr-20 13:48 34.619684 -118.089525 183 2536ft 0kts
10-Apr-20 13:49 34.619684 -118.089525 183 2536ft 0kts
10-Apr-20 13:50 34.619684 -118.089525 183 2536ft 0kts
10-Apr-20 13:51 34.619684 -118.089525 183 2536ft 0kts
10-Apr-20 13:52 34.619684 -118.089525 183 2536ft 0kts
10-Apr-20 13:53 34.619684 -118.089525 183 2536ft 0kts
10-Apr-20 13:54 34.619684 -118.089525 183 2536ft 0kts
10-Apr-20 13:55 34.619684 -118.089525 183 2536ft 0kts
10-Apr-20 13:56 34.619684 -118.089525 183 2536ft 0kts
10-Apr-20 13:57 34.619684 -118.089525 183 2536ft 0kts
10-Apr-20 13:58 34.619684 -118.089525 183 2536ft 0kts
10-Apr-20 13:59 34.619684 -118.089525 183 2536ft 0kts
10-Apr-20 14:00 34.619684 -118.089525 183 2536ft 0kts
10-Apr-20 14:01 34.619684 -118.089525 183 2536ft 0kts
10-Apr-20 14:02 34.619684 -118.089525 183 2536ft 0kts
10-Apr-20 14:03 34.619684 -118.089525 183 2536ft 0kts
10-Apr-20 14:04 34.619684 -118.089525 183 2536ft 0kts
10-Apr-20 14:05 34.619684 -118.089525 183 2536ft 0kts
10-Apr-20 14:06 34.622615 -118.082035 59 2760ft 67kts
10-Apr-20 14:07 34.631631 -118.063688 50 3720ft 60kts
10-Apr-20 14:08 34.642136 -118.047966 44 4564ft 59kts
10-Apr-20 14:09 34.654147 -118.033418 45 5309ft 65kts
10-Apr-20 14:10 34.666521 -118.018348 47 5938ft 78kts
10-Apr-20 14:11 34.683665 -117.994745 53 6008ft 98kts
10-Apr-20 14:12 34.701519 -117.968665 56 5940ft 98kts
10-Apr-20 14:13 34.718510 -117.944965 53 6013ft 91kts
10-Apr-20 14:14 34.735696 -117.921267 50 6033ft 97kts
10-Apr-20 14:15 34.753819 -117.895921 53 5996ft 99kts
10-Apr-20 14:16 34.760627 -117.868634 144 5943ft 107kts
10-Apr-20 14:17 34.734345 -117.856548 153 5914ft 99kts
10-Apr-20 14:18 34.709444 -117.845193 154 5962ft 95kts
10-Apr-20 14:19 34.684425 -117.832720 153 5495ft 101kts
10-Apr-20 14:20 34.659901 -117.820444 152 5293ft 93kts
10-Apr-20 14:21 34.636638 -117.808139 151 5306ft 91kts
10-Apr-20 14:22 34.612816 -117.796467 151 5315ft 93kts
10-Apr-20 14:23 34.589123 -117.784336 152 5342ft 91kts
10-Apr-20 14:24 34.565146 -117.772377 151 5350ft 94kts
10-Apr-20 14:25 34.540405 -117.759794 152 5312ft 98kts
10-Apr-20 14:26 34.515497 -117.747317 147 5353ft 93kts
10-Apr-20 14:27 34.526855 -117.730898 10 5371ft 97kts
10-Apr-20 14:28 34.553452 -117.726841 11 5273ft 91kts
10-Apr-20 14:29 34.578144 -117.722819 13 5302ft 88kts
10-Apr-20 14:30 34.597683 -117.741081 312 5321ft 97kts
10-Apr-20 14:31 34.614339 -117.767651 311 5347ft 99kts
10-Apr-20 14:32 34.631960 -117.795397 311 5294ft 110kts
10-Apr-20 14:33 34.642998 -117.829777 280 5207ft 110kts
10-Apr-20 14:34 34.644093 -117.866691 260 4849ft 108kts
10-Apr-20 14:35 34.642040 -117.902542 269 4525ft 98kts
10-Apr-20 14:36 34.640152 -117.937247 267 4527ft 104kts
10-Apr-20 14:37 34.638487 -117.971678 265 4003ft 102kts
10-Apr-20 14:38 34.636413 -118.005198 265 3516ft 98kts
10-Apr-20 14:39 34.634489 -118.039380 264 3088ft 102kts
10-Apr-20 14:40 34.632948 -118.070018 265 2598ft 76kts
10-Apr-20 14:41 34.633390 -118.082756 357 2500ft 0kts

Navigation Log

Ident Type
Flight plan parsing failed, navigation log unavailable